sensor_id;sensor_type;location;lat;lon;timestamp;P1;durP1;ratioP1;P2;durP2;ratioP2
57389;SDS011;43217;52.694;6.214;2023-05-07T00:01:08;23.95;;;21.77;;
57389;SDS011;43217;52.694;6.214;2023-05-07T00:03:35;24.67;;;22.30;;
57389;SDS011;43217;52.694;6.214;2023-05-07T00:06:01;24.05;;;21.90;;
57389;SDS011;43217;52.694;6.214;2023-05-07T00:08:27;26.52;;;23.92;;
57389;SDS011;43217;52.694;6.214;2023-05-07T00:10:52;25.52;;;23.13;;
57389;SDS011;43217;52.694;6.214;2023-05-07T00:13:18;25.17;;;22.98;;
57389;SDS011;43217;52.694;6.214;2023-05-07T00:15:43;25.90;;;23.30;;
57389;SDS011;43217;52.694;6.214;2023-05-07T00:18:09;27.73;;;25.20;;
57389;SDS011;43217;52.694;6.214;2023-05-07T00:20:35;27.92;;;25.33;;
57389;SDS011;43217;52.694;6.214;2023-05-07T00:23:01;27.42;;;24.83;;
57389;SDS011;43217;52.694;6.214;2023-05-07T00:25:26;27.75;;;25.05;;
57389;SDS011;43217;52.694;6.214;2023-05-07T00:27:52;26.38;;;23.92;;
57389;SDS011;43217;52.694;6.214;2023-05-07T00:30:17;27.80;;;25.10;;
57389;SDS011;43217;52.694;6.214;2023-05-07T00:32:43;27.30;;;24.45;;
57389;SDS011;43217;52.694;6.214;2023-05-07T00:35:10;28.73;;;25.95;;
57389;SDS011;43217;52.694;6.214;2023-05-07T00:37:36;29.52;;;26.65;;
57389;SDS011;43217;52.694;6.214;2023-05-07T00:40:02;30.48;;;27.48;;
57389;SDS011;43217;52.694;6.214;2023-05-07T00:42:29;29.15;;;26.30;;
57389;SDS011;43217;52.694;6.214;2023-05-07T00:44:57;30.48;;;27.50;;
57389;SDS011;43217;52.694;6.214;2023-05-07T00:47:23;30.63;;;27.63;;
57389;SDS011;43217;52.694;6.214;2023-05-07T00:49:50;31.50;;;28.42;;
57389;SDS011;43217;52.694;6.214;2023-05-07T00:52:16;31.55;;;28.42;;
57389;SDS011;43217;52.694;6.214;2023-05-07T00:54:45;32.55;;;29.35;;
57389;SDS011;43217;52.694;6.214;2023-05-07T00:57:10;33.50;;;30.30;;
57389;SDS011;43217;52.694;6.214;2023-05-07T00:59:36;32.70;;;29.50;;
57389;SDS011;43217;52.694;6.214;2023-05-07T01:02:03;32.17;;;28.92;;
57389;SDS011;43217;52.694;6.214;2023-05-07T01:04:28;34.40;;;31.00;;
57389;SDS011;43217;52.694;6.214;2023-05-07T01:06:54;32.80;;;29.63;;
57389;SDS011;43217;52.694;6.214;2023-05-07T01:09:21;34.65;;;31.33;;
57389;SDS011;43217;52.694;6.214;2023-05-07T01:11:49;33.30;;;30.10;;
57389;SDS011;43217;52.694;6.214;2023-05-07T01:16:42;31.98;;;28.85;;
57389;SDS011;43217;52.694;6.214;2023-05-07T01:19:08;32.72;;;29.48;;
57389;SDS011;43217;52.694;6.214;2023-05-07T01:21:36;31.83;;;28.83;;
57389;SDS011;43217;52.694;6.214;2023-05-07T01:24:04;33.08;;;29.77;;
57389;SDS011;43217;52.694;6.214;2023-05-07T01:26:30;33.22;;;29.83;;
57389;SDS011;43217;52.694;6.214;2023-05-07T01:28:56;32.15;;;28.92;;
57389;SDS011;43217;52.694;6.214;2023-05-07T01:31:21;32.47;;;29.13;;
57389;SDS011;43217;52.694;6.214;2023-05-07T01:33:48;34.20;;;30.83;;
57389;SDS011;43217;52.694;6.214;2023-05-07T01:36:16;31.55;;;28.45;;
57389;SDS011;43217;52.694;6.214;2023-05-07T01:38:43;32.80;;;29.48;;
57389;SDS011;43217;52.694;6.214;2023-05-07T01:41:11;32.55;;;29.23;;
57389;SDS011;43217;52.694;6.214;2023-05-07T01:43:37;32.00;;;28.60;;
57389;SDS011;43217;52.694;6.214;2023-05-07T01:46:04;29.52;;;26.52;;
57389;SDS011;43217;52.694;6.214;2023-05-07T01:48:31;29.15;;;26.17;;
57389;SDS011;43217;52.694;6.214;2023-05-07T01:50:57;28.48;;;25.70;;
57389;SDS011;43217;52.694;6.214;2023-05-07T01:53:24;28.55;;;25.60;;
57389;SDS011;43217;52.694;6.214;2023-05-07T01:55:52;28.33;;;25.42;;
57389;SDS011;43217;52.694;6.214;2023-05-07T01:58:18;26.23;;;23.63;;
57389;SDS011;43217;52.694;6.214;2023-05-07T02:00:44;26.63;;;23.90;;
57389;SDS011;43217;52.694;6.214;2023-05-07T02:03:10;25.00;;;22.38;;
57389;SDS011;43217;52.694;6.214;2023-05-07T02:05:35;26.08;;;23.45;;
57389;SDS011;43217;52.694;6.214;2023-05-07T02:08:01;24.35;;;21.90;;
57389;SDS011;43217;52.694;6.214;2023-05-07T02:10:26;22.85;;;20.63;;
57389;SDS011;43217;52.694;6.214;2023-05-07T02:12:52;23.70;;;21.20;;
57389;SDS011;43217;52.694;6.214;2023-05-07T02:15:18;23.52;;;21.33;;
57389;SDS011;43217;52.694;6.214;2023-05-07T02:18:03;22.35;;;20.25;;
57389;SDS011;43217;52.694;6.214;2023-05-07T02:20:31;22.20;;;20.10;;
57389;SDS011;43217;52.694;6.214;2023-05-07T02:22:56;23.25;;;20.92;;
57389;SDS011;43217;52.694;6.214;2023-05-07T02:25:22;22.75;;;20.33;;
57389;SDS011;43217;52.694;6.214;2023-05-07T02:27:48;22.92;;;20.63;;
57389;SDS011;43217;52.694;6.214;2023-05-07T02:30:14;23.00;;;20.70;;
57389;SDS011;43217;52.694;6.214;2023-05-07T02:32:40;22.33;;;20.13;;
57389;SDS011;43217;52.694;6.214;2023-05-07T02:35:05;22.73;;;20.55;;
57389;SDS011;43217;52.694;6.214;2023-05-07T02:37:31;23.88;;;21.55;;
57389;SDS011;43217;52.694;6.214;2023-05-07T02:39:57;22.67;;;20.48;;
57389;SDS011;43217;52.694;6.214;2023-05-07T02:42:22;24.20;;;21.88;;
57389;SDS011;43217;52.694;6.214;2023-05-07T02:44:48;24.75;;;22.23;;
57389;SDS011;43217;52.694;6.214;2023-05-07T02:47:14;25.38;;;22.85;;
57389;SDS011;43217;52.694;6.214;2023-05-07T02:49:40;25.53;;;22.97;;
57389;SDS011;43217;52.694;6.214;2023-05-07T02:52:06;25.88;;;23.27;;
57389;SDS011;43217;52.694;6.214;2023-05-07T02:54:32;25.17;;;22.67;;
57389;SDS011;43217;52.694;6.214;2023-05-07T02:56:57;25.17;;;22.92;;
57389;SDS011;43217;52.694;6.214;2023-05-07T02:59:23;27.52;;;24.83;;
57389;SDS011;43217;52.694;6.214;2023-05-07T03:01:51;26.55;;;23.65;;
57389;SDS011;43217;52.694;6.214;2023-05-07T03:04:16;28.65;;;25.75;;
57389;SDS011;43217;52.694;6.214;2023-05-07T03:06:42;26.38;;;23.67;;
57389;SDS011;43217;52.694;6.214;2023-05-07T03:09:08;27.58;;;24.77;;
57389;SDS011;43217;52.694;6.214;2023-05-07T03:11:33;27.40;;;24.80;;
57389;SDS011;43217;52.694;6.214;2023-05-07T03:14:00;27.50;;;24.77;;
57389;SDS011;43217;52.694;6.214;2023-05-07T03:16:26;26.55;;;24.00;;
57389;SDS011;43217;52.694;6.214;2023-05-07T03:18:52;26.80;;;24.05;;
57389;SDS011;43217;52.694;6.214;2023-05-07T03:21:17;27.40;;;24.85;;
57389;SDS011;43217;52.694;6.214;2023-05-07T03:23:43;27.42;;;24.80;;
57389;SDS011;43217;52.694;6.214;2023-05-07T03:26:09;26.50;;;23.90;;
57389;SDS011;43217;52.694;6.214;2023-05-07T03:28:34;28.13;;;25.27;;
57389;SDS011;43217;52.694;6.214;2023-05-07T03:31:00;28.15;;;25.33;;
57389;SDS011;43217;52.694;6.214;2023-05-07T03:33:26;28.20;;;25.40;;
57389;SDS011;43217;52.694;6.214;2023-05-07T03:35:52;27.83;;;25.02;;
57389;SDS011;43217;52.694;6.214;2023-05-07T03:38:18;28.42;;;25.52;;
57389;SDS011;43217;52.694;6.214;2023-05-07T03:40:47;29.98;;;26.98;;
57389;SDS011;43217;52.694;6.214;2023-05-07T03:43:12;27.90;;;25.13;;
57389;SDS011;43217;52.694;6.214;2023-05-07T03:45:38;28.02;;;25.10;;
57389;SDS011;43217;52.694;6.214;2023-05-07T03:48:03;28.35;;;25.60;;
57389;SDS011;43217;52.694;6.214;2023-05-07T03:50:30;28.35;;;25.48;;
57389;SDS011;43217;52.694;6.214;2023-05-07T03:52:56;28.27;;;25.47;;
57389;SDS011;43217;52.694;6.214;2023-05-07T03:55:22;29.05;;;26.15;;
57389;SDS011;43217;52.694;6.214;2023-05-07T03:57:48;29.40;;;26.35;;
57389;SDS011;43217;52.694;6.214;2023-05-07T04:00:13;29.65;;;26.65;;
57389;SDS011;43217;52.694;6.214;2023-05-07T04:02:39;30.33;;;27.27;;
57389;SDS011;43217;52.694;6.214;2023-05-07T04:05:05;28.90;;;25.90;;
57389;SDS011;43217;52.694;6.214;2023-05-07T04:07:30;30.83;;;27.67;;
57389;SDS011;43217;52.694;6.214;2023-05-07T04:09:56;30.38;;;27.27;;
57389;SDS011;43217;52.694;6.214;2023-05-07T04:12:21;30.88;;;27.65;;
57389;SDS011;43217;52.694;6.214;2023-05-07T04:14:47;30.00;;;26.77;;
57389;SDS011;43217;52.694;6.214;2023-05-07T04:17:12;31.25;;;28.05;;
57389;SDS011;43217;52.694;6.214;2023-05-07T04:19:38;32.65;;;29.30;;
57389;SDS011;43217;52.694;6.214;2023-05-07T04:22:04;30.95;;;27.75;;
57389;SDS011;43217;52.694;6.214;2023-05-07T04:24:32;31.17;;;27.95;;
57389;SDS011;43217;52.694;6.214;2023-05-07T04:26:58;32.35;;;29.05;;
57389;SDS011;43217;52.694;6.214;2023-05-07T04:29:23;32.13;;;28.73;;
57389;SDS011;43217;52.694;6.214;2023-05-07T04:31:52;33.40;;;29.90;;
57389;SDS011;43217;52.694;6.214;2023-05-07T04:34:18;33.42;;;29.88;;
57389;SDS011;43217;52.694;6.214;2023-05-07T04:36:43;31.75;;;28.38;;
57389;SDS011;43217;52.694;6.214;2023-05-07T04:39:09;32.47;;;29.20;;
57389;SDS011;43217;52.694;6.214;2023-05-07T04:41:36;33.08;;;29.42;;
57389;SDS011;43217;52.694;6.214;2023-05-07T04:44:01;34.47;;;30.45;;
57389;SDS011;43217;52.694;6.214;2023-05-07T04:48:55;35.50;;;30.77;;
57389;SDS011;43217;52.694;6.214;2023-05-07T04:51:20;36.55;;;31.23;;
57389;SDS011;43217;52.694;6.214;2023-05-07T04:53:47;34.63;;;30.58;;
57389;SDS011;43217;52.694;6.214;2023-05-07T04:56:12;39.25;;;32.33;;
57389;SDS011;43217;52.694;6.214;2023-05-07T04:58:38;34.85;;;31.02;;
57389;SDS011;43217;52.694;6.214;2023-05-07T05:01:04;35.35;;;31.65;;
57389;SDS011;43217;52.694;6.214;2023-05-07T05:03:33;35.50;;;31.83;;
57389;SDS011;43217;52.694;6.214;2023-05-07T05:05:58;37.55;;;33.58;;
57389;SDS011;43217;52.694;6.214;2023-05-07T05:08:24;34.80;;;31.02;;
57389;SDS011;43217;52.694;6.214;2023-05-07T05:10:50;38.22;;;33.05;;
57389;SDS011;43217;52.694;6.214;2023-05-07T05:13:16;40.47;;;34.63;;
57389;SDS011;43217;52.694;6.214;2023-05-07T05:15:42;38.05;;;33.95;;
57389;SDS011;43217;52.694;6.214;2023-05-07T05:18:07;36.95;;;33.00;;
57389;SDS011;43217;52.694;6.214;2023-05-07T05:20:33;39.80;;;33.67;;
57389;SDS011;43217;52.694;6.214;2023-05-07T05:22:58;38.55;;;34.40;;
57389;SDS011;43217;52.694;6.214;2023-05-07T05:25:27;38.88;;;34.35;;
57389;SDS011;43217;52.694;6.214;2023-05-07T05:27:53;37.53;;;33.42;;
57389;SDS011;43217;52.694;6.214;2023-05-07T05:30:19;38.35;;;34.28;;
57389;SDS011;43217;52.694;6.214;2023-05-07T05:32:44;40.20;;;35.63;;
57389;SDS011;43217;52.694;6.214;2023-05-07T05:35:10;40.03;;;35.08;;
57389;SDS011;43217;52.694;6.214;2023-05-07T05:37:35;39.15;;;35.03;;
57389;SDS011;43217;52.694;6.214;2023-05-07T05:40:01;38.65;;;34.47;;
57389;SDS011;43217;52.694;6.214;2023-05-07T05:42:27;38.95;;;34.75;;
57389;SDS011;43217;52.694;6.214;2023-05-07T05:44:52;39.45;;;35.22;;
57389;SDS011;43217;52.694;6.214;2023-05-07T05:47:19;40.20;;;35.88;;
57389;SDS011;43217;52.694;6.214;2023-05-07T05:49:45;38.85;;;34.80;;
57389;SDS011;43217;52.694;6.214;2023-05-07T05:52:11;38.58;;;34.47;;
57389;SDS011;43217;52.694;6.214;2023-05-07T05:54:39;39.05;;;34.90;;
57389;SDS011;43217;52.694;6.214;2023-05-07T05:57:04;38.58;;;33.58;;
57389;SDS011;43217;52.694;6.214;2023-05-07T05:59:30;37.42;;;33.42;;
57389;SDS011;43217;52.694;6.214;2023-05-07T06:01:57;38.05;;;33.90;;
57389;SDS011;43217;52.694;6.214;2023-05-07T06:04:23;39.47;;;35.50;;
57389;SDS011;43217;52.694;6.214;2023-05-07T06:06:48;36.60;;;32.67;;
57389;SDS011;43217;52.694;6.214;2023-05-07T06:09:14;38.90;;;34.72;;
57389;SDS011;43217;52.694;6.214;2023-05-07T06:11:40;37.88;;;33.88;;
57389;SDS011;43217;52.694;6.214;2023-05-07T06:14:06;38.83;;;33.95;;
57389;SDS011;43217;52.694;6.214;2023-05-07T06:16:31;39.60;;;33.50;;
57389;SDS011;43217;52.694;6.214;2023-05-07T06:18:57;36.33;;;32.55;;
57389;SDS011;43217;52.694;6.214;2023-05-07T06:21:22;38.72;;;34.30;;
57389;SDS011;43217;52.694;6.214;2023-05-07T06:23:48;36.83;;;32.92;;
57389;SDS011;43217;52.694;6.214;2023-05-07T06:26:14;36.00;;;32.10;;
57389;SDS011;43217;52.694;6.214;2023-05-07T06:28:39;36.92;;;32.97;;
57389;SDS011;43217;52.694;6.214;2023-05-07T06:31:12;36.70;;;32.72;;
57389;SDS011;43217;52.694;6.214;2023-05-07T06:33:38;35.22;;;30.98;;
57389;SDS011;43217;52.694;6.214;2023-05-07T06:36:05;36.78;;;32.20;;
57389;SDS011;43217;52.694;6.214;2023-05-07T06:38:31;35.75;;;32.03;;
57389;SDS011;43217;52.694;6.214;2023-05-07T06:40:56;34.63;;;31.02;;
57389;SDS011;43217;52.694;6.214;2023-05-07T06:43:22;34.35;;;30.85;;
57389;SDS011;43217;52.694;6.214;2023-05-07T06:45:48;34.38;;;30.75;;
57389;SDS011;43217;52.694;6.214;2023-05-07T06:48:13;32.58;;;29.27;;
57389;SDS011;43217;52.694;6.214;2023-05-07T06:50:39;32.25;;;29.10;;
57389;SDS011;43217;52.694;6.214;2023-05-07T06:53:05;32.33;;;28.90;;
57389;SDS011;43217;52.694;6.214;2023-05-07T06:55:30;32.35;;;29.15;;
57389;SDS011;43217;52.694;6.214;2023-05-07T06:57:58;31.77;;;28.48;;
57389;SDS011;43217;52.694;6.214;2023-05-07T07:00:26;31.00;;;27.92;;
57389;SDS011;43217;52.694;6.214;2023-05-07T07:02:54;32.22;;;28.92;;
57389;SDS011;43217;52.694;6.214;2023-05-07T07:05:20;31.10;;;28.13;;
57389;SDS011;43217;52.694;6.214;2023-05-07T07:07:46;30.17;;;27.17;;
57389;SDS011;43217;52.694;6.214;2023-05-07T07:10:20;28.77;;;26.00;;
57389;SDS011;43217;52.694;6.214;2023-05-07T07:12:50;29.23;;;26.40;;
57389;SDS011;43217;52.694;6.214;2023-05-07T07:15:15;29.77;;;26.77;;
57389;SDS011;43217;52.694;6.214;2023-05-07T07:17:41;27.80;;;25.15;;
57389;SDS011;43217;52.694;6.214;2023-05-07T07:20:07;27.60;;;24.85;;
57389;SDS011;43217;52.694;6.214;2023-05-07T07:22:33;27.73;;;25.00;;
57389;SDS011;43217;52.694;6.214;2023-05-07T07:24:59;27.52;;;24.83;;
57389;SDS011;43217;52.694;6.214;2023-05-07T07:27:25;26.27;;;23.73;;
57389;SDS011;43217;52.694;6.214;2023-05-07T07:29:51;26.98;;;24.38;;
57389;SDS011;43217;52.694;6.214;2023-05-07T07:32:16;27.55;;;24.90;;
57389;SDS011;43217;52.694;6.214;2023-05-07T07:34:42;25.85;;;23.25;;
57389;SDS011;43217;52.694;6.214;2023-05-07T07:37:08;26.75;;;24.17;;
57389;SDS011;43217;52.694;6.214;2023-05-07T07:39:33;26.52;;;24.08;;
57389;SDS011;43217;52.694;6.214;2023-05-07T07:41:59;27.48;;;24.98;;
57389;SDS011;43217;52.694;6.214;2023-05-07T07:44:25;28.08;;;25.35;;
57389;SDS011;43217;52.694;6.214;2023-05-07T07:46:53;26.73;;;24.00;;
57389;SDS011;43217;52.694;6.214;2023-05-07T07:49:19;27.30;;;24.70;;
57389;SDS011;43217;52.694;6.214;2023-05-07T07:51:44;27.23;;;24.58;;
57389;SDS011;43217;52.694;6.214;2023-05-07T07:54:10;28.63;;;25.83;;
57389;SDS011;43217;52.694;6.214;2023-05-07T07:56:36;27.48;;;24.70;;
57389;SDS011;43217;52.694;6.214;2023-05-07T07:59:01;28.02;;;25.23;;
57389;SDS011;43217;52.694;6.214;2023-05-07T08:01:29;27.75;;;24.95;;
57389;SDS011;43217;52.694;6.214;2023-05-07T08:03:55;27.13;;;24.42;;
57389;SDS011;43217;52.694;6.214;2023-05-07T08:08:48;28.33;;;25.52;;
57389;SDS011;43217;52.694;6.214;2023-05-07T08:11:14;29.02;;;25.98;;
57389;SDS011;43217;52.694;6.214;2023-05-07T08:13:39;29.20;;;26.30;;
57389;SDS011;43217;52.694;6.214;2023-05-07T08:16:05;28.20;;;25.40;;
57389;SDS011;43217;52.694;6.214;2023-05-07T08:18:31;30.15;;;27.02;;
57389;SDS011;43217;52.694;6.214;2023-05-07T08:20:56;28.38;;;25.60;;
57389;SDS011;43217;52.694;6.214;2023-05-07T08:23:22;28.85;;;25.95;;
57389;SDS011;43217;52.694;6.214;2023-05-07T08:25:48;27.90;;;25.17;;
57389;SDS011;43217;52.694;6.214;2023-05-07T08:28:14;26.73;;;24.17;;
57389;SDS011;43217;52.694;6.214;2023-05-07T08:30:43;28.30;;;25.58;;
57389;SDS011;43217;52.694;6.214;2023-05-07T08:33:09;27.60;;;24.90;;
57389;SDS011;43217;52.694;6.214;2023-05-07T08:35:34;27.40;;;24.70;;
57389;SDS011;43217;52.694;6.214;2023-05-07T08:38:01;27.67;;;25.10;;
57389;SDS011;43217;52.694;6.214;2023-05-07T08:40:27;27.45;;;24.95;;
57389;SDS011;43217;52.694;6.214;2023-05-07T08:42:54;32.70;;;25.35;;
57389;SDS011;43217;52.694;6.214;2023-05-07T08:47:49;26.83;;;24.30;;
57389;SDS011;43217;52.694;6.214;2023-05-07T08:50:20;27.23;;;24.55;;
57389;SDS011;43217;52.694;6.214;2023-05-07T08:52:47;26.35;;;23.90;;
57389;SDS011;43217;52.694;6.214;2023-05-07T08:55:13;26.67;;;24.25;;
57389;SDS011;43217;52.694;6.214;2023-05-07T08:57:38;26.95;;;24.45;;
57389;SDS011;43217;52.694;6.214;2023-05-07T09:00:04;26.15;;;23.67;;
57389;SDS011;43217;52.694;6.214;2023-05-07T09:02:32;25.60;;;23.23;;
57389;SDS011;43217;52.694;6.214;2023-05-07T09:04:59;26.83;;;24.20;;
57389;SDS011;43217;52.694;6.214;2023-05-07T09:07:25;25.02;;;22.65;;
57389;SDS011;43217;52.694;6.214;2023-05-07T09:09:51;27.13;;;24.63;;
57389;SDS011;43217;52.694;6.214;2023-05-07T09:12:18;25.95;;;23.52;;
57389;SDS011;43217;52.694;6.214;2023-05-07T09:14:45;26.27;;;23.77;;
57389;SDS011;43217;52.694;6.214;2023-05-07T09:17:11;24.92;;;22.55;;
57389;SDS011;43217;52.694;6.214;2023-05-07T09:19:36;26.20;;;23.77;;
57389;SDS011;43217;52.694;6.214;2023-05-07T09:22:03;24.27;;;22.17;;
57389;SDS011;43217;52.694;6.214;2023-05-07T09:24:30;25.05;;;22.65;;
57389;SDS011;43217;52.694;6.214;2023-05-07T09:27:00;25.73;;;23.42;;
57389;SDS011;43217;52.694;6.214;2023-05-07T09:32:00;25.83;;;23.30;;
57389;SDS011;43217;52.694;6.214;2023-05-07T09:34:28;27.13;;;24.63;;
57389;SDS011;43217;52.694;6.214;2023-05-07T09:39:21;26.23;;;23.60;;
57389;SDS011;43217;52.694;6.214;2023-05-07T09:41:48;25.80;;;23.40;;
57389;SDS011;43217;52.694;6.214;2023-05-07T09:44:19;27.42;;;24.83;;
57389;SDS011;43217;52.694;6.214;2023-05-07T09:46:46;24.58;;;22.15;;
57389;SDS011;43217;52.694;6.214;2023-05-07T09:49:22;25.80;;;23.50;;
57389;SDS011;43217;52.694;6.214;2023-05-07T09:51:49;25.95;;;23.27;;
57389;SDS011;43217;52.694;6.214;2023-05-07T09:54:17;26.05;;;23.65;;
57389;SDS011;43217;52.694;6.214;2023-05-07T09:56:44;25.70;;;23.25;;
57389;SDS011;43217;52.694;6.214;2023-05-07T09:59:11;25.35;;;22.95;;
57389;SDS011;43217;52.694;6.214;2023-05-07T10:01:38;24.92;;;22.52;;
57389;SDS011;43217;52.694;6.214;2023-05-07T10:04:07;24.70;;;22.30;;
57389;SDS011;43217;52.694;6.214;2023-05-07T10:06:34;26.03;;;23.43;;
57389;SDS011;43217;52.694;6.214;2023-05-07T10:09:00;24.63;;;22.33;;
57389;SDS011;43217;52.694;6.214;2023-05-07T10:11:26;26.67;;;24.07;;
57389;SDS011;43217;52.694;6.214;2023-05-07T10:13:53;25.90;;;23.42;;
57389;SDS011;43217;52.694;6.214;2023-05-07T10:16:20;25.63;;;23.23;;
57389;SDS011;43217;52.694;6.214;2023-05-07T10:18:46;25.27;;;22.77;;
57389;SDS011;43217;52.694;6.214;2023-05-07T10:21:16;25.05;;;22.65;;
57389;SDS011;43217;52.694;6.214;2023-05-07T10:23:50;24.58;;;22.23;;
57389;SDS011;43217;52.694;6.214;2023-05-07T10:26:22;26.67;;;24.08;;
57389;SDS011;43217;52.694;6.214;2023-05-07T10:28:56;25.92;;;23.50;;
57389;SDS011;43217;52.694;6.214;2023-05-07T10:34:12;26.80;;;24.10;;
57389;SDS011;43217;52.694;6.214;2023-05-07T10:36:41;25.73;;;23.42;;
57389;SDS011;43217;52.694;6.214;2023-05-07T10:39:08;26.55;;;23.95;;
57389;SDS011;43217;52.694;6.214;2023-05-07T10:41:34;25.80;;;22.97;;
57389;SDS011;43217;52.694;6.214;2023-05-07T10:44:01;26.70;;;24.05;;
57389;SDS011;43217;52.694;6.214;2023-05-07T10:46:28;24.85;;;22.42;;
57389;SDS011;43217;52.694;6.214;2023-05-07T10:51:31;28.00;;;25.40;;
57389;SDS011;43217;52.694;6.214;2023-05-07T10:56:39;23.60;;;21.27;;
57389;SDS011;43217;52.694;6.214;2023-05-07T11:02:06;23.63;;;21.20;;
57389;SDS011;43217;52.694;6.214;2023-05-07T11:04:34;23.50;;;21.20;;
57389;SDS011;43217;52.694;6.214;2023-05-07T11:15:08;23.30;;;21.10;;
57389;SDS011;43217;52.694;6.214;2023-05-07T11:17:54;24.10;;;21.75;;
57389;SDS011;43217;52.694;6.214;2023-05-07T11:20:21;24.23;;;22.00;;
57389;SDS011;43217;52.694;6.214;2023-05-07T11:26:00;22.65;;;20.48;;
57389;SDS011;43217;52.694;6.214;2023-05-07T11:28:28;22.30;;;20.20;;
57389;SDS011;43217;52.694;6.214;2023-05-07T11:30:54;19.70;;;17.85;;
57389;SDS011;43217;52.694;6.214;2023-05-07T11:33:21;21.63;;;19.50;;
57389;SDS011;43217;52.694;6.214;2023-05-07T11:35:47;21.70;;;19.60;;
57389;SDS011;43217;52.694;6.214;2023-05-07T11:38:13;20.85;;;18.70;;
57389;SDS011;43217;52.694;6.214;2023-05-07T11:40:51;23.00;;;20.73;;
57389;SDS011;43217;52.694;6.214;2023-05-07T11:43:25;22.95;;;20.75;;
57389;SDS011;43217;52.694;6.214;2023-05-07T11:45:52;23.00;;;20.90;;
57389;SDS011;43217;52.694;6.214;2023-05-07T11:48:18;22.40;;;20.35;;
57389;SDS011;43217;52.694;6.214;2023-05-07T11:50:52;22.48;;;20.27;;
57389;SDS011;43217;52.694;6.214;2023-05-07T11:53:19;22.27;;;20.17;;
57389;SDS011;43217;52.694;6.214;2023-05-07T11:55:45;20.90;;;18.97;;
57389;SDS011;43217;52.694;6.214;2023-05-07T11:58:12;22.85;;;20.60;;
57389;SDS011;43217;52.694;6.214;2023-05-07T12:00:52;21.00;;;19.00;;
57389;SDS011;43217;52.694;6.214;2023-05-07T12:03:18;24.48;;;22.05;;
57389;SDS011;43217;52.694;6.214;2023-05-07T12:05:45;23.48;;;21.27;;
57389;SDS011;43217;52.694;6.214;2023-05-07T12:08:13;22.67;;;20.50;;
57389;SDS011;43217;52.694;6.214;2023-05-07T12:10:43;21.95;;;19.85;;
57389;SDS011;43217;52.694;6.214;2023-05-07T12:13:16;21.30;;;19.40;;
57389;SDS011;43217;52.694;6.214;2023-05-07T12:15:43;22.10;;;20.08;;
57389;SDS011;43217;52.694;6.214;2023-05-07T12:18:09;24.02;;;21.73;;
57389;SDS011;43217;52.694;6.214;2023-05-07T12:20:36;22.77;;;20.67;;
57389;SDS011;43217;52.694;6.214;2023-05-07T12:23:02;22.40;;;20.40;;
57389;SDS011;43217;52.694;6.214;2023-05-07T12:25:35;22.92;;;20.75;;
57389;SDS011;43217;52.694;6.214;2023-05-07T12:28:02;23.25;;;21.02;;
57389;SDS011;43217;52.694;6.214;2023-05-07T12:30:29;22.42;;;20.42;;
57389;SDS011;43217;52.694;6.214;2023-05-07T12:32:56;23.20;;;21.02;;
57389;SDS011;43217;52.694;6.214;2023-05-07T12:35:32;23.40;;;21.20;;
57389;SDS011;43217;52.694;6.214;2023-05-07T12:38:08;21.65;;;19.45;;
57389;SDS011;43217;52.694;6.214;2023-05-07T12:40:39;21.88;;;19.80;;
57389;SDS011;43217;52.694;6.214;2023-05-07T12:45:36;20.37;;;18.47;;
57389;SDS011;43217;52.694;6.214;2023-05-07T12:48:03;21.88;;;19.90;;
57389;SDS011;43217;52.694;6.214;2023-05-07T12:50:32;21.42;;;19.42;;
57389;SDS011;43217;52.694;6.214;2023-05-07T12:52:58;22.35;;;20.25;;
57389;SDS011;43217;52.694;6.214;2023-05-07T12:55:24;21.85;;;19.70;;
57389;SDS011;43217;52.694;6.214;2023-05-07T12:57:50;23.55;;;21.40;;
57389;SDS011;43217;52.694;6.214;2023-05-07T13:00:17;22.10;;;20.10;;
57389;SDS011;43217;52.694;6.214;2023-05-07T13:02:58;20.70;;;18.80;;
57389;SDS011;43217;52.694;6.214;2023-05-07T13:05:23;21.08;;;19.17;;
57389;SDS011;43217;52.694;6.214;2023-05-07T13:07:56;21.50;;;19.60;;
57389;SDS011;43217;52.694;6.214;2023-05-07T13:10:24;21.88;;;19.77;;
57389;SDS011;43217;52.694;6.214;2023-05-07T13:12:50;21.80;;;19.83;;
57389;SDS011;43217;52.694;6.214;2023-05-07T13:15:19;21.65;;;19.65;;
57389;SDS011;43217;52.694;6.214;2023-05-07T13:17:45;23.23;;;21.00;;
57389;SDS011;43217;52.694;6.214;2023-05-07T13:20:11;22.95;;;20.75;;
57389;SDS011;43217;52.694;6.214;2023-05-07T13:22:40;23.17;;;21.08;;
57389;SDS011;43217;52.694;6.214;2023-05-07T13:25:06;23.17;;;21.08;;
57389;SDS011;43217;52.694;6.214;2023-05-07T13:27:32;22.20;;;20.13;;
57389;SDS011;43217;52.694;6.214;2023-05-07T13:30:01;21.67;;;19.58;;
57389;SDS011;43217;52.694;6.214;2023-05-07T13:32:28;23.27;;;21.15;;
57389;SDS011;43217;52.694;6.214;2023-05-07T13:34:54;22.67;;;20.60;;
57389;SDS011;43217;52.694;6.214;2023-05-07T13:37:20;23.45;;;21.25;;
57389;SDS011;43217;52.694;6.214;2023-05-07T13:39:46;22.52;;;20.42;;
57389;SDS011;43217;52.694;6.214;2023-05-07T13:42:11;22.45;;;20.30;;
57389;SDS011;43217;52.694;6.214;2023-05-07T13:44:37;23.50;;;21.30;;
57389;SDS011;43217;52.694;6.214;2023-05-07T13:47:02;22.85;;;20.58;;
57389;SDS011;43217;52.694;6.214;2023-05-07T13:49:28;22.00;;;20.02;;
57389;SDS011;43217;52.694;6.214;2023-05-07T13:51:54;22.23;;;20.15;;
57389;SDS011;43217;52.694;6.214;2023-05-07T13:54:20;21.42;;;19.52;;
57389;SDS011;43217;52.694;6.214;2023-05-07T13:56:46;20.40;;;18.60;;
57389;SDS011;43217;52.694;6.214;2023-05-07T13:59:11;20.42;;;18.42;;
57389;SDS011;43217;52.694;6.214;2023-05-07T14:04:06;20.60;;;18.70;;
57389;SDS011;43217;52.694;6.214;2023-05-07T14:06:32;20.50;;;18.58;;
57389;SDS011;43217;52.694;6.214;2023-05-07T14:08:58;18.95;;;17.33;;
57389;SDS011;43217;52.694;6.214;2023-05-07T14:11:25;20.10;;;18.30;;
57389;SDS011;43217;52.694;6.214;2023-05-07T14:13:50;19.60;;;17.88;;
57389;SDS011;43217;52.694;6.214;2023-05-07T14:16:16;20.42;;;18.55;;
57389;SDS011;43217;52.694;6.214;2023-05-07T14:18:41;20.52;;;18.63;;
57389;SDS011;43217;52.694;6.214;2023-05-07T14:21:09;19.67;;;17.88;;
57389;SDS011;43217;52.694;6.214;2023-05-07T14:23:35;19.75;;;17.92;;
57389;SDS011;43217;52.694;6.214;2023-05-07T14:26:01;21.10;;;19.20;;
57389;SDS011;43217;52.694;6.214;2023-05-07T14:28:26;22.15;;;20.15;;
57389;SDS011;43217;52.694;6.214;2023-05-07T14:30:52;20.17;;;18.38;;
57389;SDS011;43217;52.694;6.214;2023-05-07T14:33:17;20.73;;;18.80;;
57389;SDS011;43217;52.694;6.214;2023-05-07T14:35:43;21.02;;;19.05;;
57389;SDS011;43217;52.694;6.214;2023-05-07T14:38:13;20.63;;;18.77;;
57389;SDS011;43217;52.694;6.214;2023-05-07T14:40:39;21.15;;;19.27;;
57389;SDS011;43217;52.694;6.214;2023-05-07T14:43:05;21.45;;;19.45;;
57389;SDS011;43217;52.694;6.214;2023-05-07T14:45:31;21.05;;;19.15;;
57389;SDS011;43217;52.694;6.214;2023-05-07T14:47:56;20.58;;;18.70;;
57389;SDS011;43217;52.694;6.214;2023-05-07T14:50:22;20.58;;;18.60;;
57389;SDS011;43217;52.694;6.214;2023-05-07T14:52:48;21.25;;;19.05;;
57389;SDS011;43217;52.694;6.214;2023-05-07T14:55:13;18.98;;;17.25;;
57389;SDS011;43217;52.694;6.214;2023-05-07T14:57:47;18.60;;;16.90;;
57389;SDS011;43217;52.694;6.214;2023-05-07T15:00:14;20.02;;;18.15;;